Time;durP1;ratioP1;P1;durP2;ratioP2;P2;SDS_P1;SDS_P2;PMS_P1;PMS_P2;Temp;Humidity;BMP_temperature;BMP_pressure;BME280_temperature;BME280_humidity;BME280_pressure;Samples;Min_cycle;Max_cycle;Signal;HPM_P1;HPM_P2
2023/06/19 00:02:05;;;;;;;479.93;463.03;;;18.50;99.90;;;;;;5982254;24;20419;-64
2023/06/19 00:04:32;;;;;;;466.43;450.13;;;18.50;99.90;;;;;;5981572;24;20445;-64
2023/06/19 00:07:00;;;;;;;422.70;408.93;;;18.50;99.90;;;;;;5981861;24;20425;-64
2023/06/19 00:09:28;;;;;;;503.20;485.37;;;18.40;99.90;;;;;;5981692;24;20920;-64
2023/06/19 00:11:54;;;;;;;555.63;534.87;;;18.40;99.90;;;;;;5981675;24;20506;-64
2023/06/19 00:14:21;;;;;;;594.30;571.53;;;18.40;99.90;;;;;;5981741;24;20443;-64
2023/06/19 00:16:50;;;;;;;577.53;555.27;;;18.30;99.90;;;;;;5981859;24;20425;-64
2023/06/19 00:19:17;;;;;;;603.03;578.53;;;18.30;99.90;;;;;;5981625;24;20424;-64
2023/06/19 00:21:44;;;;;;;653.43;626.37;;;18.30;99.90;;;;;;5982212;24;20456;-64
2023/06/19 00:24:11;;;;;;;642.40;615.80;;;18.30;99.90;;;;;;5981147;24;21139;-64
2023/06/19 00:26:38;;;;;;;730.07;698.10;;;18.20;99.90;;;;;;5982168;24;20419;-64
2023/06/19 00:29:06;;;;;;;774.07;737.83;;;18.20;99.90;;;;;;5981762;24;20458;-64
2023/06/19 00:31:37;;;;;;;769.77;733.27;;;18.20;99.90;;;;;;5982162;24;20420;-64
2023/06/19 00:34:05;;;;;;;762.90;727.20;;;18.20;99.90;;;;;;5982487;24;20475;-64
2023/06/19 00:36:32;;;;;;;764.13;727.43;;;18.10;99.90;;;;;;5983996;24;20447;-64
2023/06/19 00:38:59;;;;;;;781.47;742.77;;;18.20;99.90;;;;;;5983453;24;20419;-64
2023/06/19 00:41:30;;;;;;;786.23;746.43;;;18.20;99.90;;;;;;5984067;24;20446;-64
2023/06/19 00:43:58;;;;;;;777.70;739.50;;;18.20;99.90;;;;;;5982927;24;20404;-64
2023/06/19 00:46:25;;;;;;;779.70;741.80;;;18.20;99.90;;;;;;5984063;24;20420;-64
2023/06/19 00:48:52;;;;;;;762.33;726.33;;;18.20;99.90;;;;;;5983696;24;20419;-64
2023/06/19 00:51:21;;;;;;;707.17;676.33;;;18.30;99.90;;;;;;5983921;24;21001;-64
2023/06/19 00:53:48;;;;;;;710.43;679.20;;;18.40;99.90;;;;;;5983247;24;20419;-64
2023/06/19 00:56:18;;;;;;;750.43;715.47;;;18.40;99.90;;;;;;5983774;24;20453;-64
2023/06/19 00:58:45;;;;;;;714.87;683.10;;;18.40;99.90;;;;;;5983291;24;20426;-64
2023/06/19 01:01:11;;;;;;;721.47;689.20;;;18.40;99.90;;;;;;5983878;24;20731;-64
2023/06/19 01:03:38;;;;;;;729.93;697.03;;;18.40;99.90;;;;;;5983237;24;20419;-64
2023/06/19 01:06:10;;;;;;;672.70;644.10;;;18.40;99.90;;;;;;5983444;24;20415;-64
2023/06/19 01:08:49;;;;;;;660.77;633.17;;;18.30;99.90;;;;;;5983661;24;20415;-64
2023/06/19 01:11:20;;;;;;;575.93;553.50;;;18.30;99.90;;;;;;5983670;24;20427;-64
2023/06/19 01:13:53;;;;;;;567.90;545.50;;;18.40;99.90;;;;;;5982495;24;20419;-64
2023/06/19 01:16:22;;;;;;;598.30;574.20;;;18.50;99.90;;;;;;5983311;24;20431;-64
2023/06/19 01:18:50;;;;;;;647.87;620.93;;;18.50;99.90;;;;;;5983424;24;20447;-64
2023/06/19 01:21:19;;;;;;;649.17;622.17;;;18.40;99.90;;;;;;5983246;24;20420;-64
2023/06/19 01:23:47;;;;;;;669.30;641.00;;;18.40;99.90;;;;;;5983160;24;20424;-64
2023/06/19 01:26:15;;;;;;;715.90;684.23;;;18.20;99.90;;;;;;5983584;24;20712;-64
2023/06/19 01:28:44;;;;;;;720.80;688.40;;;18.10;99.90;;;;;;5983423;24;20503;-64
2023/06/19 01:31:16;;;;;;;724.87;691.87;;;18.10;99.90;;;;;;5983240;24;20448;-64
2023/06/19 01:33:45;;;;;;;729.50;696.63;;;18.10;99.90;;;;;;5981089;24;20404;-64
2023/06/19 01:36:14;;;;;;;744.20;709.37;;;18.10;99.90;;;;;;5982882;24;20453;-64
2023/06/19 01:38:43;;;;;;;740.77;705.27;;;18.10;99.90;;;;;;5983072;24;20811;-64
2023/06/19 01:41:12;;;;;;;745.27;709.97;;;18.10;99.90;;;;;;5983203;24;20430;-64
2023/06/19 01:43:40;;;;;;;748.93;713.33;;;18.10;99.90;;;;;;5982497;24;20451;-64
2023/06/19 01:46:07;;;;;;;801.13;760.63;;;18.20;99.90;;;;;;5983065;24;20416;-64
2023/06/19 01:48:36;;;;;;;783.53;744.13;;;18.20;99.90;;;;;;5983303;24;20459;-64
2023/06/19 01:51:04;;;;;;;794.80;753.40;;;18.30;99.90;;;;;;5982807;24;20429;-64
2023/06/19 01:53:31;;;;;;;736.80;702.50;;;18.30;99.90;;;;;;5982375;24;20480;-64
2023/06/19 01:55:59;;;;;;;699.20;668.30;;;18.50;99.90;;;;;;5983106;24;20465;-64
2023/06/19 01:58:27;;;;;;;653.23;625.13;;;18.70;99.90;;;;;;5983142;24;20844;-64
2023/06/19 02:00:54;;;;;;;598.93;574.63;;;18.70;99.90;;;;;;5983154;24;20807;-64
2023/06/19 02:03:21;;;;;;;501.23;482.13;;;18.80;99.90;;;;;;5982320;24;20427;-64
2023/06/19 02:05:48;;;;;;;394.53;381.33;;;18.90;99.90;;;;;;5983101;24;20499;-65
2023/06/19 02:08:14;;;;;;;128.77;124.07;;;19.00;99.90;;;;;;5982902;24;20816;-64
2023/06/19 02:10:41;;;;;;;78.77;75.17;;;19.20;99.90;;;;;;5982958;24;20470;-65
2023/06/19 02:13:09;;;;;;;33.87;31.47;;;19.40;99.90;;;;;;5983315;24;20510;-65
2023/06/19 02:15:38;;;;;;;17.47;15.70;;;19.50;99.90;;;;;;5983099;24;20833;-65
2023/06/19 02:18:05;;;;;;;20.33;18.70;;;19.50;99.90;;;;;;5983123;24;20454;-65
2023/06/19 02:20:32;;;;;;;13.83;11.07;;;19.50;99.90;;;;;;5982761;24;20422;-64
2023/06/19 02:22:59;;;;;;;11.30;9.57;;;19.60;99.90;;;;;;5982987;24;20419;-64
2023/06/19 02:25:26;;;;;;;12.70;9.33;;;19.60;99.90;;;;;;5982531;24;20450;-65
2023/06/19 02:27:53;;;;;;;11.60;9.43;;;19.60;99.90;;;;;;5982731;24;20931;-65
2023/06/19 02:30:20;;;;;;;10.17;7.90;;;19.60;99.90;;;;;;5982866;24;20801;-65
2023/06/19 02:32:48;;;;;;;11.50;7.87;;;19.50;99.90;;;;;;5983021;24;20419;-65
2023/06/19 02:35:15;;;;;;;13.40;8.60;;;19.40;99.90;;;;;;5981856;24;21041;-65
2023/06/19 02:37:42;;;;;;;11.63;9.40;;;19.40;99.90;;;;;;5982725;24;20430;-64
2023/06/19 02:40:10;;;;;;;13.30;10.07;;;19.40;99.90;;;;;;5982730;24;20430;-65
2023/06/19 02:42:37;;;;;;;11.13;9.00;;;19.30;99.90;;;;;;5982788;24;20746;-64
2023/06/19 02:45:05;;;;;;;9.73;8.37;;;19.20;99.90;;;;;;5980109;24;20416;-64
2023/06/19 02:47:32;;;;;;;16.80;9.20;;;19.10;99.90;;;;;;5982512;24;20822;-64
2023/06/19 02:50:00;;;;;;;11.40;9.10;;;19.10;99.90;;;;;;5982265;24;20424;-64
2023/06/19 02:52:28;;;;;;;10.17;9.03;;;19.00;99.90;;;;;;5982288;24;20498;-64
2023/06/19 02:54:55;;;;;;;8.80;6.97;;;18.90;99.90;;;;;;5982057;24;20443;-64
2023/06/19 02:57:22;;;;;;;13.43;7.67;;;18.90;99.90;;;;;;5982724;24;20426;-64
2023/06/19 02:59:49;;;;;;;9.90;6.43;;;19.00;99.90;;;;;;5981854;24;20480;-64
2023/06/19 03:02:16;;;;;;;8.33;6.30;;;19.00;99.90;;;;;;5982280;24;20462;-65
2023/06/19 03:04:44;;;;;;;9.33;5.40;;;19.00;99.90;;;;;;5981736;24;20426;-64
2023/06/19 03:07:13;;;;;;;7.50;4.97;;;19.30;99.90;;;;;;5982697;24;20502;-64
2023/06/19 03:09:40;;;;;;;7.73;4.77;;;19.40;99.90;;;;;;5981911;24;20928;-64
2023/06/19 03:12:08;;;;;;;8.63;4.60;;;19.50;99.90;;;;;;5982274;24;20530;-64
2023/06/19 03:14:35;;;;;;;6.83;3.40;;;19.50;99.90;;;;;;5981962;24;20427;-64
2023/06/19 03:17:02;;;;;;;7.13;4.20;;;19.60;99.90;;;;;;5982574;24;20449;-67
2023/06/19 03:19:29;;;;;;;7.87;4.50;;;19.60;99.90;;;;;;5982226;24;20462;-64
2023/06/19 03:21:55;;;;;;;6.43;3.90;;;19.50;99.90;;;;;;5982431;24;20443;-64
2023/06/19 03:24:24;;;;;;;7.33;4.00;;;19.40;99.90;;;;;;5981748;24;20454;-64
2023/06/19 03:26:51;;;;;;;7.33;3.93;;;19.40;99.90;;;;;;5981748;24;20420;-64
2023/06/19 03:29:18;;;;;;;7.20;4.60;;;19.30;99.90;;;;;;5982149;24;20419;-64
2023/06/19 03:31:45;;;;;;;8.00;4.40;;;19.30;99.90;;;;;;5982574;24;20423;-64
2023/06/19 03:34:11;;;;;;;7.00;4.67;;;19.20;99.90;;;;;;5981490;24;20475;-64
2023/06/19 03:36:38;;;;;;;8.37;5.40;;;19.10;99.90;;;;;;5982059;24;20471;-64
2023/06/19 03:39:05;;;;;;;8.20;5.10;;;19.10;99.90;;;;;;5981723;24;20427;-64
2023/06/19 03:41:34;;;;;;;8.77;4.57;;;19.10;99.90;;;;;;5981755;24;20502;-65
2023/06/19 03:44:00;;;;;;;6.40;4.40;;;19.10;99.90;;;;;;5981407;24;20419;-64
2023/06/19 03:46:27;;;;;;;7.10;4.90;;;19.10;99.90;;;;;;5982459;24;20503;-65
2023/06/19 03:48:54;;;;;;;7.40;5.37;;;19.10;99.90;;;;;;5981383;24;20503;-64
2023/06/19 03:51:21;;;;;;;6.93;5.17;;;19.00;99.90;;;;;;5981322;24;20427;-65
2023/06/19 03:53:49;;;;;;;7.40;6.07;;;19.00;99.90;;;;;;5981403;24;20420;-65
2023/06/19 03:56:16;;;;;;;8.87;7.97;;;18.90;99.90;;;;;;5982012;24;20440;-64
2023/06/19 03:58:44;;;;;;;9.97;9.13;;;18.80;99.90;;;;;;5981620;24;20782;-64
2023/06/19 04:01:11;;;;;;;12.40;11.50;;;18.80;99.90;;;;;;5982202;24;20419;-64
2023/06/19 04:03:38;;;;;;;13.60;12.23;;;18.80;99.90;;;;;;5981478;24;20746;-65
2023/06/19 04:06:05;;;;;;;13.87;12.67;;;18.70;99.90;;;;;;5981732;24;20443;-65
2023/06/19 04:08:34;;;;;;;18.47;17.17;;;18.70;99.90;;;;;;5983004;24;20923;-64
2023/06/19 04:11:00;;;;;;;18.23;17.07;;;18.70;99.90;;;;;;5983511;24;20947;-64
2023/06/19 04:13:27;;;;;;;22.47;21.13;;;18.70;99.90;;;;;;5984376;24;20896;-65
2023/06/19 04:15:56;;;;;;;18.63;17.20;;;18.70;99.90;;;;;;5984379;24;20482;-65
2023/06/19 04:18:22;;;;;;;13.80;12.80;;;18.70;99.90;;;;;;5984639;24;20419;-64
2023/06/19 04:20:49;;;;;;;15.50;14.50;;;18.80;99.90;;;;;;5984845;24;20498;-64
2023/06/19 04:23:16;;;;;;;11.97;11.07;;;18.80;99.90;;;;;;5982959;24;20442;-65
2023/06/19 04:25:43;;;;;;;13.00;11.90;;;18.90;99.90;;;;;;5984950;24;20958;-64
2023/06/19 04:28:10;;;;;;;13.47;12.50;;;19.00;99.90;;;;;;5984749;24;20452;-64
2023/06/19 04:30:39;;;;;;;14.20;13.20;;;19.10;99.90;;;;;;5984763;24;20912;-64
2023/06/19 04:33:08;;;;;;;9.40;6.60;;;19.00;99.90;;;;;;5984585;24;20514;-64
2023/06/19 04:35:39;;;;;;;8.70;7.90;;;19.10;99.90;;;;;;5985334;24;20763;-65
2023/06/19 04:38:06;;;;;;;11.43;10.43;;;19.10;99.90;;;;;;5984560;24;20411;-64
2023/06/19 04:40:33;;;;;;;9.73;8.83;;;19.10;99.90;;;;;;5984288;24;20485;-64
2023/06/19 04:43:00;;;;;;;9.33;8.53;;;19.10;99.90;;;;;;5985250;24;20423;-64
2023/06/19 04:45:27;;;;;;;8.47;7.57;;;19.20;99.90;;;;;;5982250;24;20900;-64
2023/06/19 04:47:54;;;;;;;9.20;8.20;;;19.30;99.90;;;;;;5984975;24;20420;-65
2023/06/19 04:50:22;;;;;;;7.43;6.53;;;19.40;99.90;;;;;;5984677;24;20423;-64
2023/06/19 04:52:50;;;;;;;7.33;5.83;;;19.40;99.90;;;;;;5984660;24;20419;-64
2023/06/19 04:55:17;;;;;;;6.97;5.47;;;19.50;99.90;;;;;;5984082;24;20419;-65
2023/06/19 04:57:44;;;;;;;7.10;5.70;;;19.60;99.90;;;;;;5984701;24;20904;-64
2023/06/19 05:00:12;;;;;;;7.93;5.00;;;19.60;99.90;;;;;;5984477;24;20502;-64
2023/06/19 05:02:43;;;;;;;5.90;4.37;;;19.70;99.90;;;;;;5985112;24;20803;-64
2023/06/19 05:05:10;;;;;;;5.70;3.13;;;19.80;99.90;;;;;;5983750;24;20476;-64
2023/06/19 05:07:39;;;;;;;5.93;3.07;;;20.10;99.90;;;;;;5984201;24;20750;-64
2023/06/19 05:10:06;;;;;;;6.70;4.60;;;20.20;99.90;;;;;;5984296;24;20419;-64
2023/06/19 05:12:35;;;;;;;6.10;3.50;;;20.40;99.90;;;;;;5984212;24;20453;-65
2023/06/19 05:15:02;;;;;;;7.57;3.57;;;20.40;99.90;;;;;;5983879;24;20427;-65
2023/06/19 05:17:29;;;;;;;8.50;3.90;;;20.50;99.90;;;;;;5983854;24;20751;-65
2023/06/19 05:19:56;;;;;;;6.27;3.20;;;20.60;99.90;;;;;;5982510;24;20510;-65
2023/06/19 05:22:23;;;;;;;6.67;3.00;;;20.60;99.90;;;;;;5983002;24;20801;-64
2023/06/19 05:24:52;;;;;;;6.17;3.40;;;20.60;99.90;;;;;;5980626;24;20419;-65
2023/06/19 05:27:31;;;;;;;5.83;2.97;;;20.70;99.90;;;;;;5981525;24;20451;-65
2023/06/19 05:29:58;;;;;;;6.40;3.00;;;20.70;98.70;;;;;;5981635;24;20778;-65
2023/06/19 05:32:25;;;;;;;6.53;3.37;;;20.80;95.40;;;;;;5983573;24;20452;-65
2023/06/19 05:34:52;;;;;;;5.90;3.20;;;20.90;95.50;;;;;;5982802;24;20802;-65
2023/06/19 05:37:18;;;;;;;5.63;3.07;;;21.00;95.50;;;;;;5983221;24;20443;-65
2023/06/19 05:39:45;;;;;;;5.13;2.33;;;21.10;95.50;;;;;;5982763;24;20901;-65
2023/06/19 05:42:13;;;;;;;5.47;2.50;;;21.20;93.50;;;;;;5982837;24;20427;-65
2023/06/19 05:44:41;;;;;;;6.10;2.77;;;21.30;93.50;;;;;;5982794;24;20456;-66
2023/06/19 05:47:07;;;;;;;5.43;2.33;;;21.40;92.80;;;;;;5983426;24;20969;-66
2023/06/19 05:49:34;;;;;;;5.70;2.27;;;21.50;91.80;;;;;;5981749;24;20909;-66
2023/06/19 05:52:01;;;;;;;7.73;2.53;;;21.60;91.50;;;;;;5983260;24;20503;-66
2023/06/19 05:54:28;;;;;;;6.57;2.40;;;21.60;90.10;;;;;;5981568;24;20423;-66
2023/06/19 05:56:56;;;;;;;6.00;2.87;;;21.70;87.60;;;;;;5980858;24;20440;-65
2023/06/19 05:59:24;;;;;;;6.33;2.20;;;21.80;88.30;;;;;;5981383;24;20420;-65
2023/06/19 06:01:53;;;;;;;5.07;2.40;;;21.80;87.70;;;;;;5982640;24;20419;-65
2023/06/19 06:04:21;;;;;;;5.63;2.20;;;22.00;87.90;;;;;;5981518;24;20428;-65
2023/06/19 06:06:48;;;;;;;6.00;2.90;;;22.40;85.40;;;;;;5981978;24;20422;-67
2023/06/19 06:09:16;;;;;;;8.63;2.30;;;22.60;83.30;;;;;;5981448;24;20631;-66
2023/06/19 06:11:43;;;;;;;5.00;2.00;;;22.70;80.60;;;;;;5981029;24;20428;-67
2023/06/19 06:14:10;;;;;;;5.27;2.40;;;22.80;80.70;;;;;;5981256;24;20430;-67
2023/06/19 06:16:38;;;;;;;6.03;2.53;;;23.00;78.40;;;;;;5982079;24;20530;-66
2023/06/19 06:19:05;;;;;;;5.77;2.30;;;23.30;78.90;;;;;;5980875;24;20471;-65
2023/06/19 06:21:34;;;;;;;6.30;2.30;;;23.60;73.40;;;;;;5981656;24;20455;-65
2023/06/19 06:24:01;;;;;;;5.80;2.23;;;23.80;73.10;;;;;;5981293;24;20419;-66
2023/06/19 06:26:28;;;;;;;5.40;2.10;;;23.70;69.00;;;;;;5982217;24;20760;-66
2023/06/19 06:28:57;;;;;;;6.00;3.00;;;24.40;68.50;;;;;;5979582;24;20791;-65
2023/06/19 06:31:24;;;;;;;5.60;2.30;;;24.60;65.00;;;;;;5990855;24;20502;-65
2023/06/19 06:33:52;;;;;;;8.37;2.70;;;24.50;64.10;;;;;;5981751;24;20562;-66
2023/06/19 06:36:22;;;;;;;5.87;2.57;;;24.90;65.00;;;;;;5982089;24;20443;-66
2023/06/19 06:38:49;;;;;;;5.80;2.53;;;24.70;61.90;;;;;;5981217;24;20494;-66
2023/06/19 06:41:16;;;;;;;6.23;2.40;;;24.60;62.40;;;;;;5982565;24;20419;-65
2023/06/19 06:43:43;;;;;;;6.70;2.17;;;24.50;65.90;;;;;;5978600;24;20450;-65
2023/06/19 06:46:11;;;;;;;6.05;2.10;;;24.30;65.70;;;;;;5980119;24;20429;-65
2023/06/19 06:48:37;;;;;;;6.73;2.57;;;24.00;63.50;;;;;;5981186;24;20178;-67
2023/06/19 06:51:06;;;;;;;5.83;2.47;;;24.00;65.40;;;;;;5980765;24;20426;-67
2023/06/19 06:53:33;;;;;;;6.00;2.27;;;23.90;65.40;;;;;;5981155;24;20727;-67
2023/06/19 06:56:00;;;;;;;7.40;2.60;;;23.80;65.30;;;;;;5981437;24;20423;-67
2023/06/19 06:58:27;;;;;;;5.50;2.50;;;23.70;65.20;;;;;;5981601;24;20483;-67
2023/06/19 07:00:54;;;;;;;6.90;2.90;;;23.60;65.10;;;;;;5982595;24;20428;-67
2023/06/19 07:03:21;;;;;;;6.90;4.10;;;23.60;67.60;;;;;;5982445;24;20419;-66
2023/06/19 07:05:49;;;;;;;6.70;2.80;;;23.70;68.50;;;;;;5982589;24;20753;-66
2023/06/19 07:08:17;;;;;;;6.43;2.63;;;23.50;65.00;;;;;;5982614;24;20502;-66
2023/06/19 07:10:44;;;;;;;6.87;2.70;;;23.40;67.10;;;;;;5982815;24;20458;-66
2023/06/19 07:13:11;;;;;;;7.80;2.57;;;23.10;67.00;;;;;;5982053;24;20420;-67
2023/06/19 07:15:38;;;;;;;7.83;2.60;;;22.90;68.00;;;;;;5982354;24;20419;-66
2023/06/19 07:18:04;;;;;;;6.03;2.50;;;22.80;69.80;;;;;;5982147;24;20443;-66
2023/06/19 07:20:31;;;;;;;9.80;2.60;;;22.50;72.30;;;;;;5982161;24;20420;-65
2023/06/19 07:23:00;;;;;;;6.13;2.47;;;22.40;72.30;;;;;;5982258;24;20451;-67
2023/06/19 07:25:28;;;;;;;6.17;3.07;;;22.40;72.30;;;;;;5982061;24;20420;-66
2023/06/19 07:27:55;;;;;;;7.90;4.40;;;22.40;72.30;;;;;;5982631;24;20514;-67
2023/06/19 07:30:22;;;;;;;6.13;3.00;;;22.40;73.30;;;;;;5982158;24;20791;-66
2023/06/19 07:32:49;;;;;;;9.50;3.63;;;22.30;78.30;;;;;;5981532;24;20419;-66
2023/06/19 07:35:16;;;;;;;7.37;3.63;;;22.20;80.20;;;;;;5980854;24;20424;-68
2023/06/19 07:37:43;;;;;;;11.97;3.90;;;22.10;81.00;;;;;;5982063;24;20961;-68
2023/06/19 07:40:11;;;;;;;8.00;2.67;;;22.20;81.10;;;;;;5982287;24;20506;-68
2023/06/19 07:42:39;;;;;;;10.80;2.93;;;22.50;80.40;;;;;;5982082;24;20441;-68
2023/06/19 07:45:07;;;;;;;7.80;3.03;;;22.70;78.70;;;;;;5981726;24;20427;-68
2023/06/19 07:47:34;;;;;;;9.13;3.23;;;22.90;76.30;;;;;;5982381;24;20415;-68
2023/06/19 07:50:01;;;;;;;10.70;3.00;;;23.00;75.50;;;;;;5982279;24;20420;-68
2023/06/19 07:52:27;;;;;;;8.37;3.20;;;22.90;72.80;;;;;;5982506;24;20444;-68
2023/06/19 07:54:56;;;;;;;6.07;2.90;;;23.00;74.50;;;;;;5981527;24;20427;-66
2023/06/19 07:57:25;;;;;;;7.50;3.40;;;23.00;72.80;;;;;;5982224;24;20446;-67
2023/06/19 07:59:55;;;;;;;5.87;3.13;;;23.10;73.00;;;;;;5982147;24;20424;-67
2023/06/19 08:02:22;;;;;;;7.00;3.03;;;23.20;73.00;;;;;;5982384;24;20475;-67
2023/06/19 08:04:48;;;;;;;7.53;3.65;;;23.50;73.30;;;;;;5981539;24;20451;-67
2023/06/19 08:07:15;;;;;;;8.53;4.03;;;23.90;69.80;;;;;;5982272;24;20578;-64
2023/06/19 08:09:42;;;;;;;6.40;2.90;;;24.30;65.80;;;;;;5982231;24;20420;-64
2023/06/19 08:12:09;;;;;;;9.70;3.00;;;24.60;66.10;;;;;;5982088;24;20769;-64
2023/06/19 08:14:38;;;;;;;7.40;2.70;;;25.00;65.20;;;;;;5981836;24;20511;-64
2023/06/19 08:17:06;;;;;;;9.00;3.10;;;25.10;60.20;;;;;;5982341;24;20439;-64
2023/06/19 08:19:33;;;;;;;6.83;3.17;;;25.20;61.80;;;;;;5982205;24;20454;-64
2023/06/19 08:22:00;;;;;;;7.97;3.13;;;25.60;61.80;;;;;;5982343;24;20474;-64
2023/06/19 08:24:27;;;;;;;6.37;3.23;;;25.90;58.50;;;;;;5981994;24;20809;-64
2023/06/19 08:26:54;;;;;;;8.80;2.80;;;26.50;50.10;;;;;;5982031;24;20502;-64
2023/06/19 08:29:22;;;;;;;11.87;3.23;;;26.60;50.60;;;;;;5981705;24;20500;-64
2023/06/19 08:31:49;;;;;;;6.10;3.00;;;26.60;50.20;;;;;;5982358;24;20452;-64
2023/06/19 08:34:17;;;;;;;9.87;3.70;;;27.50;46.60;;;;;;5981844;24;20814;-64
2023/06/19 08:36:44;;;;;;;7.00;3.80;;;27.80;41.90;;;;;;5981944;24;20999;-64
2023/06/19 08:39:11;;;;;;;6.60;3.30;;;28.00;34.50;;;;;;5981744;24;20430;-64
2023/06/19 08:41:39;;;;;;;10.77;3.57;;;27.90;36.00;;;;;;5982198;24;20488;-64
2023/06/19 08:44:06;;;;;;;8.87;3.40;;;27.90;32.70;;;;;;5981698;24;20510;-64
2023/06/19 08:46:34;;;;;;;11.03;3.10;;;27.60;33.50;;;;;;5981955;24;20423;-64
2023/06/19 08:49:01;;;;;;;8.47;4.07;;;27.90;34.70;;;;;;5982200;24;20415;-64
2023/06/19 08:51:30;;;;;;;7.27;2.93;;;28.10;32.80;;;;;;5981956;24;20419;-64
2023/06/19 08:54:01;;;;;;;6.97;3.30;;;29.00;33.10;;;;;;5982088;24;20423;-64
2023/06/19 08:56:28;;;;;;;8.07;3.50;;;29.20;28.00;;;;;;5983554;24;20446;-64
2023/06/19 08:58:54;;;;;;;8.53;3.30;;;28.20;25.10;;;;;;5983454;24;20938;-64
2023/06/19 09:01:23;;;;;;;6.30;3.47;;;28.60;28.70;;;;;;5983662;24;20913;-64
2023/06/19 09:03:52;;;;;;;5.70;3.07;;;28.90;25.40;;;;;;5983469;24;20450;-64
2023/06/19 09:06:19;;;;;;;6.53;3.50;;;29.40;24.40;;;;;;5983594;24;20899;-64
2023/06/19 09:08:59;;;;;;;6.37;3.33;;;29.80;21.20;;;;;;5983621;24;20441;-62
2023/06/19 09:11:25;;;;;;;8.30;3.03;;;29.70;19.80;;;;;;5983403;24;20406;-63
2023/06/19 09:13:58;;;;;;;8.07;3.97;;;28.80;20.50;;;;;;5982820;24;20562;-62
2023/06/19 09:16:36;;;;;;;7.83;3.33;;;27.60;24.60;;;;;;5983507;24;20407;-62
2023/06/19 09:19:03;;;;;;;7.93;3.73;;;27.20;24.90;;;;;;5983302;24;20486;-62
2023/06/19 09:21:30;;;;;;;10.93;4.43;;;27.60;24.70;;;;;;5983773;24;20419;-62
2023/06/19 09:24:05;;;;;;;11.07;4.03;;;28.20;25.10;;;;;;5983250;24;20801;-62
2023/06/19 09:26:32;;;;;;;7.00;3.60;;;28.30;24.50;;;;;;5983443;24;20409;-62
2023/06/19 09:28:59;;;;;;;8.37;4.00;;;28.80;23.10;;;;;;5983514;24;20447;-62
2023/06/19 09:31:33;;;;;;;7.77;3.30;;;29.60;21.70;;;;;;5983293;24;20506;-65
2023/06/19 09:34:00;;;;;;;9.17;3.97;;;29.40;18.20;;;;;;5985038;24;20793;-65
2023/06/19 09:36:27;;;;;;;6.97;3.97;;;29.30;18.50;;;;;;5983959;24;20964;-65
2023/06/19 09:38:59;;;;;;;8.33;3.57;;;28.40;17.70;;;;;;5981469;24;20446;-65
2023/06/19 09:41:29;;;;;;;6.90;3.70;;;28.30;18.30;;;;;;5982287;24;20406;-65
2023/06/19 09:43:57;;;;;;;9.80;4.07;;;28.60;20.40;;;;;;5981891;24;20522;-66
2023/06/19 09:46:30;;;;;;;8.77;3.47;;;28.90;12.30;;;;;;5982627;24;20466;-65
2023/06/19 09:49:01;;;;;;;10.03;3.67;;;29.20;10.40;;;;;;5981995;24;20439;-65
2023/06/19 09:51:31;;;;;;;11.83;3.70;;;29.50;13.80;;;;;;5982882;24;20411;-65
2023/06/19 09:54:00;;;;;;;10.40;4.37;;;28.60;12.50;;;;;;5981959;24;20467;-65
2023/06/19 09:56:29;;;;;;;12.80;3.73;;;28.70;12.30;;;;;;5982449;24;20426;-65
2023/06/19 09:58:59;;;;;;;9.47;4.20;;;29.10;12.90;;;;;;5982723;24;20471;-65
2023/06/19 10:01:28;;;;;;;11.10;4.03;;;29.40;12.60;;;;;;5983198;24;20876;-66
2023/06/19 10:04:05;;;;;;;6.93;3.70;;;28.90;10.30;;;;;;5982643;24;20426;-65
2023/06/19 10:06:32;;;;;;;7.27;4.10;;;29.60;12.40;;;;;;5983281;24;20404;-65
2023/06/19 10:09:07;;;;;;;9.03;3.87;;;30.20;8.90;;;;;;5983281;24;20427;-65
2023/06/19 10:11:47;;;;;;;9.23;3.60;;;30.50;9.10;;;;;;5983054;24;20426;-65
2023/06/19 10:14:18;;;;;;;11.03;4.17;;;30.80;6.20;;;;;;5982591;24;20428;-66
2023/06/19 10:16:44;;;;;;;9.73;4.27;;;30.60;6.60;;;;;;5982717;24;20404;-65
2023/06/19 10:19:16;;;;;;;7.70;4.17;;;29.60;8.20;;;;;;5982795;24;20530;-65
2023/06/19 10:21:48;;;;;;;8.90;3.47;;;30.10;3.00;;;;;;5983026;24;20424;-65
2023/06/19 10:24:18;;;;;;;7.00;3.63;;;29.90;2.90;;;;;;5982166;24;20904;-66
2023/06/19 10:26:57;;;;;;;10.50;4.03;;;30.70;3.40;;;;;;5983158;24;20450;-65
2023/06/19 10:29:27;;;;;;;7.40;3.37;;;30.90;2.60;;;;;;5983378;24;20910;-65
2023/06/19 10:31:54;;;;;;;7.53;4.00;;;31.30;3.50;;;;;;5983423;24;20423;-66
2023/06/19 10:34:21;;;;;;;8.10;4.00;;;31.40;1.00;;;;;;5982682;24;20503;-66
2023/06/19 10:36:48;;;;;;;7.40;4.37;;;31.30;1.50;;;;;;5983428;24;20755;-65
2023/06/19 10:39:16;;;;;;;7.30;3.57;;;32.10;1.00;;;;;;5982811;24;20439;-65
2023/06/19 10:41:43;;;;;;;10.50;4.33;;;32.50;1.00;;;;;;5982817;24;20423;-65
2023/06/19 10:44:12;;;;;;;7.67;4.33;;;32.50;1.00;;;;;;5982361;24;20430;-65
2023/06/19 10:46:41;;;;;;;7.33;3.30;;;32.30;1.00;;;;;;5982885;24;20913;-65
2023/06/19 10:49:11;;;;;;;9.07;4.20;;;31.60;1.00;;;;;;5982569;24;20414;-66
2023/06/19 10:51:39;;;;;;;9.03;4.03;;;30.60;1.00;;;;;;5983301;24;20502;-65
2023/06/19 10:54:06;;;;;;;14.77;4.33;;;30.40;1.00;;;;;;5982479;24;20405;-65
2023/06/19 10:56:33;;;;;;;8.10;4.53;;;30.60;1.00;;;;;;5982197;24;20438;-65
2023/06/19 10:59:01;;;;;;;9.30;4.20;;;30.80;1.00;;;;;;5982783;24;20487;-65
2023/06/19 11:01:37;;;;;;;12.50;4.20;;;31.40;1.00;;;;;;5983114;24;20480;-66
2023/06/19 11:04:09;;;;;;;7.73;4.13;;;31.40;1.00;;;;;;5982433;24;20435;-65
2023/06/19 11:06:36;;;;;;;7.10;4.00;;;31.40;1.00;;;;;;5983107;24;20451;-65
2023/06/19 11:09:04;;;;;;;10.47;4.00;;;31.40;1.00;;;;;;5982791;24;20474;-66
2023/06/19 11:11:39;;;;;;;8.67;4.20;;;31.90;1.00;;;;;;5982867;24;20454;-65
2023/06/19 11:14:06;;;;;;;7.30;4.10;;;31.60;1.00;;;;;;5982309;24;20450;-66
2023/06/19 11:16:33;;;;;;;7.87;4.20;;;31.30;1.00;;;;;;5982958;24;20442;-65
2023/06/19 11:19:03;;;;;;;10.93;4.80;;;31.90;1.00;;;;;;5982341;24;20416;-65
2023/06/19 11:21:34;;;;;;;10.57;4.93;;;32.10;1.00;;;;;;5982845;24;20420;-65
2023/06/19 11:24:01;;;;;;;8.80;4.13;;;32.60;1.00;;;;;;5982264;24;20424;-65
2023/06/19 11:26:28;;;;;;;9.50;4.13;;;33.30;1.00;;;;;;5982816;24;20400;-65
2023/06/19 11:28:55;;;;;;;7.43;3.60;;;34.00;1.00;;;;;;5982794;24;20447;-67
2023/06/19 11:31:26;;;;;;;6.57;3.80;;;32.60;1.00;;;;;;5982984;24;20442;-66
2023/06/19 11:33:58;;;;;;;7.17;4.07;;;32.50;1.00;;;;;;5980773;24;20385;-66
2023/06/19 11:36:26;;;;;;;10.00;5.17;;;33.20;1.00;;;;;;5982509;24;20385;-66
2023/06/19 11:38:54;;;;;;;10.70;4.40;;;33.50;1.00;;;;;;5982236;24;20494;-65
2023/06/19 11:41:28;;;;;;;11.90;4.67;;;33.80;1.00;;;;;;5982648;24;20476;-65
2023/06/19 11:44:01;;;;;;;8.40;4.17;;;34.90;1.00;;;;;;5981910;24;20446;-65
2023/06/19 11:46:32;;;;;;;9.93;3.90;;;35.10;1.00;;;;;;5982341;24;20405;-65
2023/06/19 11:49:09;;;;;;;7.73;4.73;;;35.80;1.00;;;;;;5982505;24;20453;-66
2023/06/19 11:51:37;;;;;;;7.80;4.20;;;35.20;1.00;;;;;;5982636;24;20407;-66
2023/06/19 11:54:08;;;;;;;9.30;4.20;;;35.30;1.00;;;;;;5981614;24;20394;-66
2023/06/19 11:56:35;;;;;;;7.87;4.17;;;35.50;1.00;;;;;;5982920;24;20383;-66
2023/06/19 11:59:03;;;;;;;9.77;4.43;;;35.30;1.00;;;;;;5982628;24;20475;-66
2023/06/19 12:01:30;;;;;;;8.73;4.20;;;35.30;1.00;;;;;;5982391;24;20394;-66
2023/06/19 12:03:56;;;;;;;7.53;4.20;;;35.10;1.00;;;;;;5982169;24;20425;-66
2023/06/19 12:06:23;;;;;;;8.73;4.57;;;34.40;1.00;;;;;;5982800;24;20420;-66
2023/06/19 12:08:52;;;;;;;10.43;4.10;;;34.20;1.00;;;;;;5982119;24;20450;-66
2023/06/19 12:11:18;;;;;;;8.67;4.90;;;34.80;1.00;;;;;;5982653;24;20933;-66
2023/06/19 12:13:45;;;;;;;6.73;3.63;;;34.50;1.00;;;;;;5981944;24;20384;-66
2023/06/19 12:16:13;;;;;;;8.03;4.87;;;34.90;1.00;;;;;;5982617;24;20452;-66
2023/06/19 12:18:40;;;;;;;8.27;4.47;;;34.50;1.00;;;;;;5980752;23;20546;-66
2023/06/19 12:21:07;;;;;;;10.00;4.70;;;34.60;1.00;;;;;;5981853;24;20781;-66
2023/06/19 12:23:34;;;;;;;10.13;4.20;;;34.70;1.00;;;;;;5982078;24;20415;-66
2023/06/19 12:26:03;;;;;;;8.67;3.93;;;35.00;1.00;;;;;;5982903;24;20866;-65
2023/06/19 12:28:30;;;;;;;6.93;4.00;;;35.50;1.00;;;;;;5982457;24;20834;-65
2023/06/19 12:30:58;;;;;;;8.27;4.63;;;36.40;1.00;;;;;;5984096;24;20764;-64
2023/06/19 12:33:25;;;;;;;10.03;4.37;;;36.90;1.00;;;;;;5983476;24;20699;-63
2023/06/19 12:35:52;;;;;;;10.40;4.40;;;35.80;1.00;;;;;;5983857;24;20477;-64
2023/06/19 12:38:18;;;;;;;8.90;4.63;;;34.90;1.00;;;;;;5983709;24;20920;-65
2023/06/19 12:40:45;;;;;;;7.40;4.07;;;34.30;1.00;;;;;;5984524;24;20393;-63
2023/06/19 12:43:13;;;;;;;6.63;4.00;;;33.20;1.00;;;;;;5983481;24;20427;-63
2023/06/19 12:45:41;;;;;;;10.00;4.67;;;33.40;1.00;;;;;;5984113;24;20510;-65